HRHO2: North Canadian River

Data processed at Fri Mar 09 2018 23:24


All information presented herein is the property of the government of the United States of America and may be revised or deleted at any time without prior notice.
Dissemination of this information without the expressed written consent of the Public Affairs Office, Tulsa District U.S. Army Corps of Engineers is strictly prohibited.
These data are gathered electronically and, as presented, have not undergone any form of quality control. These data are not guaranteed to be valid or correct.
Go to home page.
Go to station list.

Upstream stations:

Downstream station:
Previous Day
Next Day
Current Day
    
SHEF ID:       HRHO2     North Canadian River near Harrah
STATION TYPE:  

                STAGE  RIV-FLOW  WTR-TEMP   DIS-OXY        PH   CONDUCT  BAT-LOAD
                   ft       cfs         F      mg/l        su   umho/cm      volt
              Ccp-Rev   Ccp-Rev   Ccp-Rev   Ccp-Rev   Ccp-Rev   Ccp-Rev   Ccp-Rev
(US/Central)
03/07 00:00      4.60       182     47.28      9.69      9.77       894     12.54
03/07 01:00      4.57       175     46.54      9.60      9.73       894     12.54
03/07 02:00      4.55       171     45.90      9.49      9.77       894     12.54
03/07 03:00      4.56       173     45.18      9.53      9.73       895     12.48
03/07 04:00      4.58       177     44.53      9.37      9.73       897     12.48
03/07 05:00      4.61       184     43.83      9.37      9.64       900     12.42
03/07 06:00      4.63       188     43.18      9.74      9.61       902     12.42
03/07 07:00      4.68       200     42.75      8.81      9.73       903     12.42
03/07 08:00      4.70       205     42.33      9.81      9.74       903     12.42
03/07 09:00      4.75       217     42.53     10.22      9.72       903     12.71
03/07 10:00      4.71       207     43.48     10.29      9.70       900     12.95
03/07 11:00      4.72       210     45.14     10.47      9.60       894     13.53
03/07 12:00      4.71       207     47.10     10.56      9.59       888     14.18
03/07 13:00      4.78       225     49.23     10.42      9.58       887     14.12
03/07 14:00      4.81       232     51.33     10.44      9.58       884     14.06
03/07 15:00      4.86       245     53.08     10.39      9.55       880     14.00
03/07 16:00      4.88       251     54.23     10.56      9.52       876     13.88
03/07 17:00      4.90       256     54.66     10.53      9.48       874     13.83
03/07 18:00      4.90       256     54.23      9.82      9.58       872     13.71
03/07 19:00      4.88       251     53.51      9.66      9.52       870     13.12
03/07 20:00      4.86       245     52.79      9.59      9.51       869     12.77
03/07 21:00      4.83       237     52.02      9.31      9.53       869     12.65
03/07 22:00      4.82       235     51.26      9.12      9.57       872     12.60
03/07 23:00      4.81       232     50.50      8.83      9.53       876     12.54